createdAt,value
2023-03-06T00:02:14.199Z,75.41
2023-03-06T00:04:41.617Z,75.24
2023-03-06T00:07:12.369Z,75.34
2023-03-06T00:09:39.471Z,75.13
2023-03-06T00:12:07.288Z,75.12
2023-03-06T00:14:34.442Z,74.73
2023-03-06T00:17:01.578Z,74.51
2023-03-06T00:19:28.944Z,73.83
2023-03-06T00:21:56.128Z,73.61
2023-03-06T00:24:23.272Z,74.09
2023-03-06T00:26:50.942Z,74.18
2023-03-06T00:29:18.395Z,73.04
2023-03-06T00:31:47.881Z,72.80
2023-03-06T00:34:15.472Z,72.35
2023-03-06T00:36:42.563Z,72.96
2023-03-06T00:39:09.805Z,72.34
2023-03-06T00:41:37.211Z,72.74
2023-03-06T00:44:04.445Z,71.71
2023-03-06T00:46:31.618Z,71.67
2023-03-06T00:48:59.112Z,71.54
2023-03-06T00:51:26.343Z,72.45
2023-03-06T00:53:53.485Z,72.56
2023-03-06T00:56:21.023Z,71.89
2023-03-06T00:58:48.232Z,72.75
2023-03-06T01:01:15.385Z,71.63
2023-03-06T01:03:43.645Z,71.62
2023-03-06T01:06:10.902Z,72.04
2023-03-06T01:08:38.158Z,71.74
2023-03-06T01:11:05.825Z,71.78
2023-03-06T01:13:32.981Z,71.62
2023-03-06T01:16:09.787Z,71.84
2023-03-06T01:18:37.993Z,72.20
2023-03-06T01:21:05.895Z,71.94
2023-03-06T01:23:33.142Z,72.59
2023-03-06T01:26:00.707Z,72.69
2023-03-06T01:28:28.812Z,72.44
2023-03-06T01:30:56.433Z,72.60
2023-03-06T01:33:23.879Z,72.33
2023-03-06T01:35:51.047Z,72.45
2023-03-06T01:38:18.508Z,73.29
2023-03-06T01:40:46.254Z,71.91
2023-03-06T01:43:27.445Z,71.85
2023-03-06T01:46:33.723Z,72.54
2023-03-06T01:49:09.486Z,73.06
2023-03-06T01:51:51.739Z,73.12
2023-03-06T01:54:24.100Z,71.71
2023-03-06T01:56:56.569Z,72.27
2023-03-06T01:59:26.938Z,72.51
2023-03-06T02:01:57.123Z,72.68
2023-03-06T02:04:24.920Z,72.96
2023-03-06T02:06:52.056Z,72.97
2023-03-06T02:09:19.205Z,72.63
2023-03-06T02:11:46.751Z,72.78
2023-03-06T02:14:17.129Z,72.22
2023-03-06T02:16:44.812Z,72.35
2023-03-06T02:19:29.654Z,72.57
2023-03-06T02:21:57.146Z,72.39
2023-03-06T02:24:33.103Z,73.24
2023-03-06T02:27:03.406Z,72.88
2023-03-06T02:29:31.228Z,72.96
2023-03-06T02:31:59.241Z,73.43
2023-03-06T02:34:26.583Z,71.81
2023-03-06T02:37:08.909Z,72.38
2023-03-06T02:39:44.197Z,72.74
2023-03-06T02:42:21.732Z,72.78
2023-03-06T02:44:51.199Z,72.49
2023-03-06T02:47:18.276Z,71.92
2023-03-06T02:49:45.321Z,72.22
2023-03-06T02:52:12.845Z,72.56
2023-03-06T02:54:40.208Z,73.02
2023-03-06T02:57:07.459Z,71.93
2023-03-06T02:59:35.087Z,72.00
2023-03-06T03:02:02.492Z,72.87
2023-03-06T03:04:29.547Z,72.88
2023-03-06T03:06:56.996Z,72.68
2023-03-06T03:09:25.184Z,72.24
2023-03-06T03:11:52.291Z,72.62
2023-03-06T03:14:19.728Z,72.02
2023-03-06T03:16:46.965Z,72.53
2023-03-06T03:19:14.355Z,71.61
2023-03-06T03:21:42.882Z,72.75
2023-03-06T03:24:10.008Z,72.48
2023-03-06T03:26:37.129Z,72.50
2023-03-06T03:29:05.215Z,73.49
2023-03-06T03:31:32.915Z,72.60
2023-03-06T03:34:00.413Z,72.58
2023-03-06T03:36:30.665Z,73.25
2023-03-06T03:38:58.139Z,72.49
2023-03-06T03:41:25.787Z,73.52
2023-03-06T03:43:53.146Z,73.64
2023-03-06T03:46:21.559Z,73.38
2023-03-06T03:48:49.167Z,73.41
2023-03-06T03:51:17.145Z,73.41
2023-03-06T03:53:45.124Z,73.14
2023-03-06T03:56:13.267Z,72.92
2023-03-06T03:58:42.337Z,73.17
2023-03-06T04:01:09.498Z,73.48
2023-03-06T04:03:37.220Z,73.87
2023-03-06T04:06:04.978Z,73.61
2023-03-06T04:08:32.120Z,73.70
2023-03-06T04:11:00.114Z,74.05
2023-03-06T04:13:28.106Z,74.18
2023-03-06T04:15:56.423Z,74.38
2023-03-06T04:18:24.038Z,73.86
2023-03-06T04:20:52.335Z,74.08
2023-03-06T04:23:20.045Z,74.31
2023-03-06T04:25:47.782Z,73.63
2023-03-06T04:28:15.528Z,73.85
2023-03-06T04:30:43.090Z,73.21
2023-03-06T04:33:10.846Z,73.60
2023-03-06T04:35:38.419Z,73.71
2023-03-06T04:38:06.348Z,74.03
2023-03-06T04:40:35.634Z,73.55
2023-03-06T04:43:04.329Z,74.08
2023-03-06T04:45:32.557Z,74.19
2023-03-06T04:48:00.073Z,74.54
2023-03-06T04:50:32.578Z,74.25
2023-03-06T04:53:01.374Z,73.63
2023-03-06T04:55:29.490Z,74.17
2023-03-06T04:57:57.496Z,73.65
2023-03-06T05:00:31.493Z,73.57
2023-03-06T05:03:00.263Z,74.01
2023-03-06T05:05:28.171Z,73.93
2023-03-06T05:07:56.025Z,73.97
2023-03-06T05:10:23.903Z,73.68
2023-03-06T05:12:51.340Z,73.61
2023-03-06T05:15:18.836Z,73.32
2023-03-06T05:17:47.521Z,73.07
2023-03-06T05:20:16.392Z,72.95
2023-03-06T05:22:44.075Z,72.99
2023-03-06T05:25:11.410Z,72.86
2023-03-06T05:27:39.743Z,73.45
2023-03-06T05:30:07.769Z,73.30
2023-03-06T05:32:35.836Z,73.00
2023-03-06T05:35:04.348Z,72.81
2023-03-06T05:37:31.953Z,72.96
2023-03-06T05:39:59.787Z,73.57
2023-03-06T05:42:28.761Z,73.29
2023-03-06T05:44:55.885Z,73.16
2023-03-06T05:47:22.842Z,73.47
2023-03-06T05:49:50.406Z,74.16
2023-03-06T05:52:17.808Z,74.09
2023-03-06T05:54:44.898Z,73.72
2023-03-06T05:57:12.312Z,73.54
2023-03-06T05:59:39.330Z,73.37
